sensor_id;sensor_type;location;lat;lon;timestamp;temperature;humidity
13035;DHT22;6584;48.022;11.810;2022-11-15T00:00:16;4.70;99.90
13035;DHT22;6584;48.022;11.810;2022-11-15T00:02:42;4.70;99.90
13035;DHT22;6584;48.022;11.810;2022-11-15T00:05:08;4.70;99.90
13035;DHT22;6584;48.022;11.810;2022-11-15T00:07:33;4.70;99.90
13035;DHT22;6584;48.022;11.810;2022-11-15T00:09:59;4.60;99.90
13035;DHT22;6584;48.022;11.810;2022-11-15T00:12:24;4.60;99.90
13035;DHT22;6584;48.022;11.810;2022-11-15T00:14:51;4.60;99.90
13035;DHT22;6584;48.022;11.810;2022-11-15T00:17:17;4.50;99.90
13035;DHT22;6584;48.022;11.810;2022-11-15T00:19:42;4.50;99.90
13035;DHT22;6584;48.022;11.810;2022-11-15T00:22:08;4.50;99.90
13035;DHT22;6584;48.022;11.810;2022-11-15T00:24:34;4.50;99.90
13035;DHT22;6584;48.022;11.810;2022-11-15T00:26:59;4.60;99.90
13035;DHT22;6584;48.022;11.810;2022-11-15T00:29:25;4.60;99.90
13035;DHT22;6584;48.022;11.810;2022-11-15T00:31:50;4.70;99.90
13035;DHT22;6584;48.022;11.810;2022-11-15T00:34:16;4.70;99.90
13035;DHT22;6584;48.022;11.810;2022-11-15T00:36:41;4.70;99.90
13035;DHT22;6584;48.022;11.810;2022-11-15T00:39:07;4.70;99.90
13035;DHT22;6584;48.022;11.810;2022-11-15T00:41:33;4.60;99.90
13035;DHT22;6584;48.022;11.810;2022-11-15T00:43:58;4.60;99.90
13035;DHT22;6584;48.022;11.810;2022-11-15T00:46:25;4.50;99.90
13035;DHT22;6584;48.022;11.810;2022-11-15T00:48:50;4.40;99.90
13035;DHT22;6584;48.022;11.810;2022-11-15T00:51:16;4.40;99.90
13035;DHT22;6584;48.022;11.810;2022-11-15T00:53:42;4.30;99.90
13035;DHT22;6584;48.022;11.810;2022-11-15T00:56:07;4.30;99.90
13035;DHT22;6584;48.022;11.810;2022-11-15T00:58:33;4.30;99.90
13035;DHT22;6584;48.022;11.810;2022-11-15T01:01:13;4.20;99.90
13035;DHT22;6584;48.022;11.810;2022-11-15T01:03:40;4.20;99.90
13035;DHT22;6584;48.022;11.810;2022-11-15T01:06:07;4.20;99.90
13035;DHT22;6584;48.022;11.810;2022-11-15T01:08:33;4.20;99.90
13035;DHT22;6584;48.022;11.810;2022-11-15T01:11:10;4.20;99.90
13035;DHT22;6584;48.022;11.810;2022-11-15T01:13:37;4.10;99.90
13035;DHT22;6584;48.022;11.810;2022-11-15T01:16:08;4.10;99.90
13035;DHT22;6584;48.022;11.810;2022-11-15T01:18:34;4.10;99.90
13035;DHT22;6584;48.022;11.810;2022-11-15T01:20:59;4.10;99.90
13035;DHT22;6584;48.022;11.810;2022-11-15T01:23:25;4.10;99.90
13035;DHT22;6584;48.022;11.810;2022-11-15T01:25:50;4.10;99.90
13035;DHT22;6584;48.022;11.810;2022-11-15T01:28:16;4.00;99.90
13035;DHT22;6584;48.022;11.810;2022-11-15T01:30:42;4.00;99.90
13035;DHT22;6584;48.022;11.810;2022-11-15T01:33:07;4.10;99.90
13035;DHT22;6584;48.022;11.810;2022-11-15T01:35:33;4.00;99.90
13035;DHT22;6584;48.022;11.810;2022-11-15T01:37:58;4.00;99.90
13035;DHT22;6584;48.022;11.810;2022-11-15T01:40:24;4.10;99.90
13035;DHT22;6584;48.022;11.810;2022-11-15T01:42:49;4.10;99.90
13035;DHT22;6584;48.022;11.810;2022-11-15T01:45:15;4.00;99.90
13035;DHT22;6584;48.022;11.810;2022-11-15T01:47:46;4.00;99.90
13035;DHT22;6584;48.022;11.810;2022-11-15T01:50:17;4.00;99.90
13035;DHT22;6584;48.022;11.810;2022-11-15T01:52:45;4.00;99.90
13035;DHT22;6584;48.022;11.810;2022-11-15T01:55:13;4.10;99.90
13035;DHT22;6584;48.022;11.810;2022-11-15T01:57:42;4.00;99.90
13035;DHT22;6584;48.022;11.810;2022-11-15T02:00:10;4.10;99.90
13035;DHT22;6584;48.022;11.810;2022-11-15T02:02:36;4.10;99.90
13035;DHT22;6584;48.022;11.810;2022-11-15T02:05:03;4.20;99.90
13035;DHT22;6584;48.022;11.810;2022-11-15T02:07:30;4.20;99.90
13035;DHT22;6584;48.022;11.810;2022-11-15T02:09:58;4.30;99.90
13035;DHT22;6584;48.022;11.810;2022-11-15T02:12:26;4.20;99.90
13035;DHT22;6584;48.022;11.810;2022-11-15T02:14:54;4.20;99.90
13035;DHT22;6584;48.022;11.810;2022-11-15T02:17:43;4.20;99.90
13035;DHT22;6584;48.022;11.810;2022-11-15T02:20:32;4.20;99.90
13035;DHT22;6584;48.022;11.810;2022-11-15T02:32:47;4.30;99.90
13035;DHT22;6584;48.022;11.810;2022-11-15T02:34:56;4.20;99.90
13035;DHT22;6584;48.022;11.810;2022-11-15T02:37:37;4.20;99.90
13035;DHT22;6584;48.022;11.810;2022-11-15T02:42:54;4.20;99.90
13035;DHT22;6584;48.022;11.810;2022-11-15T02:45:44;4.10;99.90
13035;DHT22;6584;48.022;11.810;2022-11-15T02:48:12;4.10;99.90
13035;DHT22;6584;48.022;11.810;2022-11-15T02:50:38;4.30;99.90
13035;DHT22;6584;48.022;11.810;2022-11-15T02:53:03;4.30;99.90
13035;DHT22;6584;48.022;11.810;2022-11-15T02:55:34;4.30;99.90
13035;DHT22;6584;48.022;11.810;2022-11-15T03:01:01;4.40;99.90
13035;DHT22;6584;48.022;11.810;2022-11-15T03:08:57;4.40;99.90
13035;DHT22;6584;48.022;11.810;2022-11-15T03:11:29;4.40;99.90
13035;DHT22;6584;48.022;11.810;2022-11-15T03:14:24;4.40;99.90
13035;DHT22;6584;48.022;11.810;2022-11-15T03:19:45;4.30;99.90
13035;DHT22;6584;48.022;11.810;2022-11-15T03:22:19;4.30;99.90
13035;DHT22;6584;48.022;11.810;2022-11-15T03:24:48;4.30;99.90
13035;DHT22;6584;48.022;11.810;2022-11-15T03:27:19;4.30;99.90
13035;DHT22;6584;48.022;11.810;2022-11-15T03:29:53;4.40;99.90
13035;DHT22;6584;48.022;11.810;2022-11-15T03:32:28;4.30;99.90
13035;DHT22;6584;48.022;11.810;2022-11-15T03:35:00;4.30;99.90
13035;DHT22;6584;48.022;11.810;2022-11-15T03:37:35;4.30;99.90
13035;DHT22;6584;48.022;11.810;2022-11-15T03:40:03;4.30;99.90
13035;DHT22;6584;48.022;11.810;2022-11-15T03:42:38;4.30;99.90
13035;DHT22;6584;48.022;11.810;2022-11-15T03:45:17;4.30;99.90
13035;DHT22;6584;48.022;11.810;2022-11-15T03:47:55;4.20;99.90
13035;DHT22;6584;48.022;11.810;2022-11-15T03:50:24;4.10;99.90
13035;DHT22;6584;48.022;11.810;2022-11-15T03:52:50;4.10;99.90
13035;DHT22;6584;48.022;11.810;2022-11-15T03:55:20;4.00;99.90
13035;DHT22;6584;48.022;11.810;2022-11-15T03:57:47;3.90;99.90
13035;DHT22;6584;48.022;11.810;2022-11-15T04:00:14;3.90;99.90
13035;DHT22;6584;48.022;11.810;2022-11-15T04:02:39;3.90;99.90
13035;DHT22;6584;48.022;11.810;2022-11-15T04:05:05;3.80;99.90
13035;DHT22;6584;48.022;11.810;2022-11-15T04:07:31;3.70;99.90
13035;DHT22;6584;48.022;11.810;2022-11-15T04:09:56;3.70;99.90
13035;DHT22;6584;48.022;11.810;2022-11-15T04:12:43;3.70;99.90
13035;DHT22;6584;48.022;11.810;2022-11-15T04:15:18;3.70;99.90
13035;DHT22;6584;48.022;11.810;2022-11-15T04:17:49;3.60;99.90
13035;DHT22;6584;48.022;11.810;2022-11-15T04:20:20;3.60;99.90
13035;DHT22;6584;48.022;11.810;2022-11-15T04:23:08;3.70;99.90
13035;DHT22;6584;48.022;11.810;2022-11-15T04:25:54;3.80;99.90
13035;DHT22;6584;48.022;11.810;2022-11-15T04:28:20;3.90;99.90
13035;DHT22;6584;48.022;11.810;2022-11-15T04:30:46;4.00;99.90
13035;DHT22;6584;48.022;11.810;2022-11-15T04:33:12;4.10;99.90
13035;DHT22;6584;48.022;11.810;2022-11-15T04:35:37;4.10;99.90
13035;DHT22;6584;48.022;11.810;2022-11-15T04:38:04;4.10;99.90
13035;DHT22;6584;48.022;11.810;2022-11-15T04:40:30;4.00;99.90
13035;DHT22;6584;48.022;11.810;2022-11-15T04:42:57;3.90;99.90
13035;DHT22;6584;48.022;11.810;2022-11-15T04:45:23;3.80;99.90
13035;DHT22;6584;48.022;11.810;2022-11-15T04:47:48;3.80;99.90
13035;DHT22;6584;48.022;11.810;2022-11-15T04:50:15;4.00;99.90
13035;DHT22;6584;48.022;11.810;2022-11-15T04:52:41;4.10;99.90
13035;DHT22;6584;48.022;11.810;2022-11-15T04:55:11;4.10;99.90
13035;DHT22;6584;48.022;11.810;2022-11-15T04:57:37;4.10;99.90
13035;DHT22;6584;48.022;11.810;2022-11-15T05:00:05;4.20;99.90
13035;DHT22;6584;48.022;11.810;2022-11-15T05:02:31;4.00;99.90
13035;DHT22;6584;48.022;11.810;2022-11-15T05:05:17;4.00;99.90
13035;DHT22;6584;48.022;11.810;2022-11-15T05:07:42;4.00;99.90
13035;DHT22;6584;48.022;11.810;2022-11-15T05:10:08;4.00;99.90
13035;DHT22;6584;48.022;11.810;2022-11-15T05:12:34;4.00;99.90
13035;DHT22;6584;48.022;11.810;2022-11-15T05:15:00;3.90;99.90
13035;DHT22;6584;48.022;11.810;2022-11-15T05:17:25;3.90;99.90
13035;DHT22;6584;48.022;11.810;2022-11-15T05:19:51;3.90;99.90
13035;DHT22;6584;48.022;11.810;2022-11-15T05:22:18;3.90;99.90
13035;DHT22;6584;48.022;11.810;2022-11-15T05:24:43;3.90;99.90
13035;DHT22;6584;48.022;11.810;2022-11-15T05:27:09;3.90;99.90
13035;DHT22;6584;48.022;11.810;2022-11-15T05:29:34;3.90;99.90
13035;DHT22;6584;48.022;11.810;2022-11-15T05:32:00;3.90;99.90
13035;DHT22;6584;48.022;11.810;2022-11-15T05:34:26;3.90;99.90
13035;DHT22;6584;48.022;11.810;2022-11-15T05:36:52;3.80;99.90
13035;DHT22;6584;48.022;11.810;2022-11-15T05:39:18;3.80;99.90
13035;DHT22;6584;48.022;11.810;2022-11-15T05:41:54;3.70;99.90
13035;DHT22;6584;48.022;11.810;2022-11-15T05:44:23;3.60;99.90
13035;DHT22;6584;48.022;11.810;2022-11-15T05:46:52;3.60;99.90
13035;DHT22;6584;48.022;11.810;2022-11-15T05:49:21;3.50;99.90
13035;DHT22;6584;48.022;11.810;2022-11-15T05:51:49;3.40;99.90
13035;DHT22;6584;48.022;11.810;2022-11-15T05:54:17;3.30;99.90
13035;DHT22;6584;48.022;11.810;2022-11-15T05:56:45;3.30;99.90
13035;DHT22;6584;48.022;11.810;2022-11-15T05:59:11;3.30;99.90
13035;DHT22;6584;48.022;11.810;2022-11-15T06:01:37;3.20;99.90
13035;DHT22;6584;48.022;11.810;2022-11-15T06:04:03;3.20;99.90
13035;DHT22;6584;48.022;11.810;2022-11-15T06:06:29;3.20;99.90
13035;DHT22;6584;48.022;11.810;2022-11-15T06:08:54;3.20;99.90
13035;DHT22;6584;48.022;11.810;2022-11-15T06:11:20;3.30;99.90
13035;DHT22;6584;48.022;11.810;2022-11-15T06:13:46;3.40;99.90
13035;DHT22;6584;48.022;11.810;2022-11-15T06:16:11;3.60;99.90
13035;DHT22;6584;48.022;11.810;2022-11-15T06:18:37;3.60;99.90
13035;DHT22;6584;48.022;11.810;2022-11-15T06:21:04;3.60;99.90
13035;DHT22;6584;48.022;11.810;2022-11-15T06:23:32;3.60;99.90
13035;DHT22;6584;48.022;11.810;2022-11-15T06:25:59;3.60;99.90
13035;DHT22;6584;48.022;11.810;2022-11-15T06:28:28;3.70;99.90
13035;DHT22;6584;48.022;11.810;2022-11-15T06:30:54;3.70;99.90
13035;DHT22;6584;48.022;11.810;2022-11-15T06:33:20;3.60;99.90
13035;DHT22;6584;48.022;11.810;2022-11-15T06:35:45;3.50;99.90
13035;DHT22;6584;48.022;11.810;2022-11-15T06:38:11;3.40;99.90
13035;DHT22;6584;48.022;11.810;2022-11-15T06:40:38;3.50;99.90
13035;DHT22;6584;48.022;11.810;2022-11-15T06:43:04;3.50;99.90
13035;DHT22;6584;48.022;11.810;2022-11-15T06:45:31;3.50;99.90
13035;DHT22;6584;48.022;11.810;2022-11-15T06:47:57;3.40;99.90
13035;DHT22;6584;48.022;11.810;2022-11-15T06:50:23;3.40;99.90
13035;DHT22;6584;48.022;11.810;2022-11-15T06:52:49;3.40;99.90
13035;DHT22;6584;48.022;11.810;2022-11-15T06:55:14;3.50;99.90
13035;DHT22;6584;48.022;11.810;2022-11-15T06:57:51;3.50;99.90
13035;DHT22;6584;48.022;11.810;2022-11-15T07:00:18;3.60;99.90
13035;DHT22;6584;48.022;11.810;2022-11-15T07:02:45;3.60;99.90
13035;DHT22;6584;48.022;11.810;2022-11-15T07:05:11;3.70;99.90
13035;DHT22;6584;48.022;11.810;2022-11-15T07:07:37;3.70;99.90
13035;DHT22;6584;48.022;11.810;2022-11-15T07:10:03;3.80;99.90
13035;DHT22;6584;48.022;11.810;2022-11-15T07:12:29;3.90;99.90
13035;DHT22;6584;48.022;11.810;2022-11-15T07:14:54;4.00;99.90
13035;DHT22;6584;48.022;11.810;2022-11-15T07:17:20;4.00;99.90
13035;DHT22;6584;48.022;11.810;2022-11-15T07:19:46;4.10;99.90
13035;DHT22;6584;48.022;11.810;2022-11-15T07:22:11;4.10;99.90
13035;DHT22;6584;48.022;11.810;2022-11-15T07:24:37;4.20;99.90
13035;DHT22;6584;48.022;11.810;2022-11-15T07:27:02;4.30;99.90
13035;DHT22;6584;48.022;11.810;2022-11-15T07:29:46;4.40;99.90
13035;DHT22;6584;48.022;11.810;2022-11-15T07:32:12;4.50;99.90
13035;DHT22;6584;48.022;11.810;2022-11-15T07:34:37;4.50;99.90
13035;DHT22;6584;48.022;11.810;2022-11-15T07:37:03;4.60;99.90
13035;DHT22;6584;48.022;11.810;2022-11-15T07:39:29;4.80;99.90
13035;DHT22;6584;48.022;11.810;2022-11-15T07:41:54;4.80;99.90
13035;DHT22;6584;48.022;11.810;2022-11-15T07:44:40;4.90;99.90
13035;DHT22;6584;48.022;11.810;2022-11-15T07:47:05;4.90;99.90
13035;DHT22;6584;48.022;11.810;2022-11-15T07:49:31;5.00;99.90
13035;DHT22;6584;48.022;11.810;2022-11-15T07:51:56;5.00;99.90
13035;DHT22;6584;48.022;11.810;2022-11-15T07:54:22;5.00;99.90
13035;DHT22;6584;48.022;11.810;2022-11-15T07:56:47;5.10;99.90
13035;DHT22;6584;48.022;11.810;2022-11-15T07:59:13;5.20;99.90
13035;DHT22;6584;48.022;11.810;2022-11-15T08:01:38;5.20;99.90
13035;DHT22;6584;48.022;11.810;2022-11-15T08:04:04;5.20;99.90
13035;DHT22;6584;48.022;11.810;2022-11-15T08:06:29;5.30;99.90
13035;DHT22;6584;48.022;11.810;2022-11-15T08:08:55;5.30;99.90
13035;DHT22;6584;48.022;11.810;2022-11-15T08:11:21;5.40;99.90
13035;DHT22;6584;48.022;11.810;2022-11-15T08:13:46;5.40;99.90
13035;DHT22;6584;48.022;11.810;2022-11-15T08:16:12;5.40;99.90
13035;DHT22;6584;48.022;11.810;2022-11-15T08:18:37;5.50;99.90
13035;DHT22;6584;48.022;11.810;2022-11-15T08:21:04;5.50;99.90
13035;DHT22;6584;48.022;11.810;2022-11-15T08:23:29;5.60;99.90
13035;DHT22;6584;48.022;11.810;2022-11-15T08:26:03;5.70;99.90
13035;DHT22;6584;48.022;11.810;2022-11-15T08:28:29;5.90;99.90
13035;DHT22;6584;48.022;11.810;2022-11-15T08:30:58;5.90;99.90
13035;DHT22;6584;48.022;11.810;2022-11-15T08:33:23;6.00;99.90
13035;DHT22;6584;48.022;11.810;2022-11-15T08:35:49;6.00;99.90
13035;DHT22;6584;48.022;11.810;2022-11-15T08:38:15;6.20;99.90
13035;DHT22;6584;48.022;11.810;2022-11-15T08:40:40;6.30;99.90
13035;DHT22;6584;48.022;11.810;2022-11-15T08:43:06;6.40;99.90
13035;DHT22;6584;48.022;11.810;2022-11-15T08:45:34;6.40;99.90
13035;DHT22;6584;48.022;11.810;2022-11-15T08:48:03;6.50;99.90
13035;DHT22;6584;48.022;11.810;2022-11-15T08:50:29;6.60;99.90
13035;DHT22;6584;48.022;11.810;2022-11-15T08:52:55;6.70;99.90
13035;DHT22;6584;48.022;11.810;2022-11-15T08:55:20;6.90;99.90
13035;DHT22;6584;48.022;11.810;2022-11-15T08:57:46;7.00;99.90
13035;DHT22;6584;48.022;11.810;2022-11-15T09:00:12;7.10;99.90
13035;DHT22;6584;48.022;11.810;2022-11-15T09:02:39;7.20;99.90
13035;DHT22;6584;48.022;11.810;2022-11-15T09:05:05;7.10;99.90
13035;DHT22;6584;48.022;11.810;2022-11-15T09:07:31;7.20;99.90
13035;DHT22;6584;48.022;11.810;2022-11-15T09:09:57;7.40;99.90
13035;DHT22;6584;48.022;11.810;2022-11-15T09:12:23;7.40;99.90
13035;DHT22;6584;48.022;11.810;2022-11-15T09:14:49;7.40;99.90
13035;DHT22;6584;48.022;11.810;2022-11-15T09:17:14;7.50;99.90
13035;DHT22;6584;48.022;11.810;2022-11-15T09:19:40;7.60;99.90
13035;DHT22;6584;48.022;11.810;2022-11-15T09:22:07;7.60;99.90
13035;DHT22;6584;48.022;11.810;2022-11-15T09:24:33;7.70;99.90
13035;DHT22;6584;48.022;11.810;2022-11-15T09:26:59;7.80;99.90
13035;DHT22;6584;48.022;11.810;2022-11-15T09:29:24;8.00;99.90
13035;DHT22;6584;48.022;11.810;2022-11-15T09:31:52;8.10;99.90
13035;DHT22;6584;48.022;11.810;2022-11-15T09:34:18;8.30;99.90
13035;DHT22;6584;48.022;11.810;2022-11-15T09:36:43;8.20;99.90
13035;DHT22;6584;48.022;11.810;2022-11-15T09:39:09;8.30;99.90
13035;DHT22;6584;48.022;11.810;2022-11-15T09:42:05;8.20;99.90
13035;DHT22;6584;48.022;11.810;2022-11-15T09:47:33;8.30;99.90
13035;DHT22;6584;48.022;11.810;2022-11-15T09:50:10;8.30;99.90
13035;DHT22;6584;48.022;11.810;2022-11-15T09:52:39;8.30;99.90
13035;DHT22;6584;48.022;11.810;2022-11-15T09:55:11;8.30;99.90
13035;DHT22;6584;48.022;11.810;2022-11-15T09:57:58;8.40;99.90
13035;DHT22;6584;48.022;11.810;2022-11-15T10:00:33;8.50;99.90
13035;DHT22;6584;48.022;11.810;2022-11-15T10:05:44;8.80;99.90
13035;DHT22;6584;48.022;11.810;2022-11-15T10:11:02;8.80;99.90
13035;DHT22;6584;48.022;11.810;2022-11-15T10:13:35;9.00;99.90
13035;DHT22;6584;48.022;11.810;2022-11-15T10:19:10;9.20;99.90
13035;DHT22;6584;48.022;11.810;2022-11-15T10:24:34;9.30;99.90
13035;DHT22;6584;48.022;11.810;2022-11-15T10:27:00;9.30;99.90
13035;DHT22;6584;48.022;11.810;2022-11-15T10:29:26;9.40;99.90
13035;DHT22;6584;48.022;11.810;2022-11-15T10:31:52;9.40;99.90
13035;DHT22;6584;48.022;11.810;2022-11-15T10:34:20;9.50;99.90
13035;DHT22;6584;48.022;11.810;2022-11-15T10:36:56;9.50;99.90
13035;DHT22;6584;48.022;11.810;2022-11-15T10:39:22;9.50;99.90
13035;DHT22;6584;48.022;11.810;2022-11-15T10:41:47;9.70;99.90
13035;DHT22;6584;48.022;11.810;2022-11-15T10:46:43;9.70;99.90
13035;DHT22;6584;48.022;11.810;2022-11-15T10:51:49;9.80;99.90
13035;DHT22;6584;48.022;11.810;2022-11-15T10:54:36;9.90;99.90
13035;DHT22;6584;48.022;11.810;2022-11-15T10:57:14;10.00;99.90
13035;DHT22;6584;48.022;11.810;2022-11-15T11:05:37;10.20;99.90
13035;DHT22;6584;48.022;11.810;2022-11-15T11:10:55;10.50;99.90
13035;DHT22;6584;48.022;11.810;2022-11-15T11:13:22;10.50;99.90
13035;DHT22;6584;48.022;11.810;2022-11-15T11:18:29;10.50;99.90
13035;DHT22;6584;48.022;11.810;2022-11-15T11:21:01;10.50;99.90
13035;DHT22;6584;48.022;11.810;2022-11-15T11:26:39;10.60;99.90
13035;DHT22;6584;48.022;11.810;2022-11-15T11:29:12;10.70;99.90
13035;DHT22;6584;48.022;11.810;2022-11-15T11:34:58;10.80;99.90
13035;DHT22;6584;48.022;11.810;2022-11-15T11:40:29;10.80;99.90
13035;DHT22;6584;48.022;11.810;2022-11-15T11:49:12;10.80;99.90
13035;DHT22;6584;48.022;11.810;2022-11-15T11:57:49;10.90;99.90
13035;DHT22;6584;48.022;11.810;2022-11-15T12:00:21;10.90;99.90
13035;DHT22;6584;48.022;11.810;2022-11-15T12:03:50;11.00;99.90
13035;DHT22;6584;48.022;11.810;2022-11-15T12:05:56;11.00;99.90
13035;DHT22;6584;48.022;11.810;2022-11-15T12:08:30;10.90;99.90
13035;DHT22;6584;48.022;11.810;2022-11-15T12:14:35;11.10;99.90
13035;DHT22;6584;48.022;11.810;2022-11-15T12:17:03;11.20;99.90
13035;DHT22;6584;48.022;11.810;2022-11-15T12:19:30;11.10;99.90
13035;DHT22;6584;48.022;11.810;2022-11-15T12:22:21;11.20;99.90
13035;DHT22;6584;48.022;11.810;2022-11-15T12:24:57;11.20;99.90
13035;DHT22;6584;48.022;11.810;2022-11-15T12:27:36;11.20;99.90
13035;DHT22;6584;48.022;11.810;2022-11-15T12:30:18;11.30;99.90
13035;DHT22;6584;48.022;11.810;2022-11-15T12:37:54;11.20;99.90
13035;DHT22;6584;48.022;11.810;2022-11-15T12:40:27;11.30;99.90
13035;DHT22;6584;48.022;11.810;2022-11-15T12:43:44;11.40;99.90
13035;DHT22;6584;48.022;11.810;2022-11-15T13:02:42;11.30;99.90
13035;DHT22;6584;48.022;11.810;2022-11-15T13:17:42;11.50;99.90
13035;DHT22;6584;48.022;11.810;2022-11-15T13:25:58;11.50;99.90
13035;DHT22;6584;48.022;11.810;2022-11-15T13:28:33;11.50;99.90
13035;DHT22;6584;48.022;11.810;2022-11-15T13:31:14;11.50;99.90
13035;DHT22;6584;48.022;11.810;2022-11-15T13:33:43;11.50;99.90
13035;DHT22;6584;48.022;11.810;2022-11-15T13:38:40;11.50;99.90
13035;DHT22;6584;48.022;11.810;2022-11-15T13:41:20;11.60;99.90
13035;DHT22;6584;48.022;11.810;2022-11-15T13:43:47;11.60;99.90
13035;DHT22;6584;48.022;11.810;2022-11-15T13:46:18;11.50;99.90
13035;DHT22;6584;48.022;11.810;2022-11-15T13:48:45;11.50;99.90
13035;DHT22;6584;48.022;11.810;2022-11-15T13:51:35;11.50;99.90
13035;DHT22;6584;48.022;11.810;2022-11-15T13:56:41;11.50;99.90
13035;DHT22;6584;48.022;11.810;2022-11-15T13:59:09;11.50;99.90
13035;DHT22;6584;48.022;11.810;2022-11-15T14:01:35;11.50;99.90
13035;DHT22;6584;48.022;11.810;2022-11-15T14:04:03;11.50;99.90
13035;DHT22;6584;48.022;11.810;2022-11-15T14:06:29;11.40;99.90
13035;DHT22;6584;48.022;11.810;2022-11-15T14:11:37;11.40;99.90
13035;DHT22;6584;48.022;11.810;2022-11-15T14:19:02;11.30;99.90
13035;DHT22;6584;48.022;11.810;2022-11-15T14:21:28;11.30;99.90
13035;DHT22;6584;48.022;11.810;2022-11-15T14:24:17;11.20;99.90
13035;DHT22;6584;48.022;11.810;2022-11-15T14:26:42;11.10;99.90
13035;DHT22;6584;48.022;11.810;2022-11-15T14:29:26;11.10;99.90
13035;DHT22;6584;48.022;11.810;2022-11-15T14:31:53;11.00;99.90
13035;DHT22;6584;48.022;11.810;2022-11-15T14:34:19;10.90;99.90
13035;DHT22;6584;48.022;11.810;2022-11-15T14:36:47;10.90;99.90
13035;DHT22;6584;48.022;11.810;2022-11-15T14:39:13;10.90;99.90
13035;DHT22;6584;48.022;11.810;2022-11-15T14:41:38;10.80;99.90
13035;DHT22;6584;48.022;11.810;2022-11-15T14:44:05;10.80;99.90
13035;DHT22;6584;48.022;11.810;2022-11-15T14:46:31;10.70;99.90
13035;DHT22;6584;48.022;11.810;2022-11-15T14:48:59;10.70;99.90
13035;DHT22;6584;48.022;11.810;2022-11-15T14:51:25;10.70;99.90
13035;DHT22;6584;48.022;11.810;2022-11-15T14:53:51;10.60;99.90
13035;DHT22;6584;48.022;11.810;2022-11-15T14:56:17;10.50;99.90
13035;DHT22;6584;48.022;11.810;2022-11-15T14:58:42;10.40;99.90
13035;DHT22;6584;48.022;11.810;2022-11-15T15:01:21;10.30;99.90
13035;DHT22;6584;48.022;11.810;2022-11-15T15:03:48;10.30;99.90
13035;DHT22;6584;48.022;11.810;2022-11-15T15:06:14;10.20;99.90
13035;DHT22;6584;48.022;11.810;2022-11-15T15:08:40;10.10;99.90
13035;DHT22;6584;48.022;11.810;2022-11-15T15:11:21;10.00;99.90
13035;DHT22;6584;48.022;11.810;2022-11-15T15:13:46;9.90;99.90
13035;DHT22;6584;48.022;11.810;2022-11-15T15:16:12;9.80;99.90
13035;DHT22;6584;48.022;11.810;2022-11-15T15:18:38;9.70;99.90
13035;DHT22;6584;48.022;11.810;2022-11-15T15:21:21;9.60;99.90
13035;DHT22;6584;48.022;11.810;2022-11-15T15:23:48;9.50;99.90
13035;DHT22;6584;48.022;11.810;2022-11-15T15:26:13;9.50;99.90
13035;DHT22;6584;48.022;11.810;2022-11-15T15:28:39;9.40;99.90
13035;DHT22;6584;48.022;11.810;2022-11-15T15:31:05;9.30;99.90
13035;DHT22;6584;48.022;11.810;2022-11-15T15:33:31;9.20;99.90
13035;DHT22;6584;48.022;11.810;2022-11-15T15:35:57;9.10;99.90
13035;DHT22;6584;48.022;11.810;2022-11-15T15:38:23;9.10;99.90
13035;DHT22;6584;48.022;11.810;2022-11-15T15:40:49;9.00;99.90
13035;DHT22;6584;48.022;11.810;2022-11-15T15:43:14;9.00;99.90
13035;DHT22;6584;48.022;11.810;2022-11-15T15:45:41;8.90;99.90
13035;DHT22;6584;48.022;11.810;2022-11-15T15:48:15;8.90;99.90
13035;DHT22;6584;48.022;11.810;2022-11-15T15:50:42;8.90;99.90
13035;DHT22;6584;48.022;11.810;2022-11-15T15:53:12;8.80;99.90
13035;DHT22;6584;48.022;11.810;2022-11-15T15:55:38;8.80;99.90
13035;DHT22;6584;48.022;11.810;2022-11-15T15:58:04;8.80;99.90
13035;DHT22;6584;48.022;11.810;2022-11-15T16:00:30;8.70;99.90
13035;DHT22;6584;48.022;11.810;2022-11-15T16:02:58;8.60;99.90
13035;DHT22;6584;48.022;11.810;2022-11-15T16:05:24;8.50;99.90
13035;DHT22;6584;48.022;11.810;2022-11-15T16:07:50;8.40;99.90
13035;DHT22;6584;48.022;11.810;2022-11-15T16:10:27;8.40;99.90
13035;DHT22;6584;48.022;11.810;2022-11-15T16:12:54;8.40;99.90
13035;DHT22;6584;48.022;11.810;2022-11-15T16:15:21;8.40;99.90
13035;DHT22;6584;48.022;11.810;2022-11-15T16:17:51;8.40;99.90
13035;DHT22;6584;48.022;11.810;2022-11-15T16:20:38;8.30;99.90
13035;DHT22;6584;48.022;11.810;2022-11-15T16:23:07;8.30;99.90
13035;DHT22;6584;48.022;11.810;2022-11-15T16:25:38;8.30;99.90
13035;DHT22;6584;48.022;11.810;2022-11-15T16:28:05;8.20;99.90
13035;DHT22;6584;48.022;11.810;2022-11-15T16:30:33;8.20;99.90
13035;DHT22;6584;48.022;11.810;2022-11-15T16:32:59;8.20;99.90
13035;DHT22;6584;48.022;11.810;2022-11-15T16:35:25;8.20;99.90
13035;DHT22;6584;48.022;11.810;2022-11-15T16:37:51;8.10;99.90
13035;DHT22;6584;48.022;11.810;2022-11-15T16:40:24;8.00;99.90
13035;DHT22;6584;48.022;11.810;2022-11-15T16:42:50;8.00;99.90
13035;DHT22;6584;48.022;11.810;2022-11-15T16:45:16;7.90;99.90
13035;DHT22;6584;48.022;11.810;2022-11-15T16:47:42;7.70;99.90
13035;DHT22;6584;48.022;11.810;2022-11-15T16:50:18;7.50;99.90
13035;DHT22;6584;48.022;11.810;2022-11-15T16:52:51;7.50;99.90
13035;DHT22;6584;48.022;11.810;2022-11-15T16:55:17;7.50;99.90
13035;DHT22;6584;48.022;11.810;2022-11-15T16:57:43;7.50;99.90
13035;DHT22;6584;48.022;11.810;2022-11-15T17:00:11;7.60;99.90
13035;DHT22;6584;48.022;11.810;2022-11-15T17:02:37;7.50;99.90
13035;DHT22;6584;48.022;11.810;2022-11-15T17:05:03;7.50;99.90
13035;DHT22;6584;48.022;11.810;2022-11-15T17:07:29;7.60;99.90
13035;DHT22;6584;48.022;11.810;2022-11-15T17:09:54;7.50;99.90
13035;DHT22;6584;48.022;11.810;2022-11-15T17:12:20;7.50;99.90
13035;DHT22;6584;48.022;11.810;2022-11-15T17:14:45;7.50;99.90
13035;DHT22;6584;48.022;11.810;2022-11-15T17:17:11;7.50;99.90
13035;DHT22;6584;48.022;11.810;2022-11-15T17:19:37;7.50;99.90
13035;DHT22;6584;48.022;11.810;2022-11-15T17:22:02;7.50;99.90
13035;DHT22;6584;48.022;11.810;2022-11-15T17:24:28;7.40;99.90
13035;DHT22;6584;48.022;11.810;2022-11-15T17:26:53;7.40;99.90
13035;DHT22;6584;48.022;11.810;2022-11-15T17:29:19;7.50;99.90
13035;DHT22;6584;48.022;11.810;2022-11-15T17:31:44;7.50;99.90
13035;DHT22;6584;48.022;11.810;2022-11-15T17:34:10;7.50;99.90
13035;DHT22;6584;48.022;11.810;2022-11-15T17:36:36;7.50;99.90
13035;DHT22;6584;48.022;11.810;2022-11-15T17:39:03;7.50;99.90
13035;DHT22;6584;48.022;11.810;2022-11-15T17:41:28;7.60;99.90
13035;DHT22;6584;48.022;11.810;2022-11-15T17:43:56;7.60;99.90
13035;DHT22;6584;48.022;11.810;2022-11-15T17:46:22;7.50;99.90
13035;DHT22;6584;48.022;11.810;2022-11-15T17:48:48;7.60;99.90
13035;DHT22;6584;48.022;11.810;2022-11-15T17:51:15;7.60;99.90
13035;DHT22;6584;48.022;11.810;2022-11-15T17:53:43;7.50;99.90
13035;DHT22;6584;48.022;11.810;2022-11-15T17:56:20;7.50;99.90
13035;DHT22;6584;48.022;11.810;2022-11-15T17:58:51;7.50;99.90
13035;DHT22;6584;48.022;11.810;2022-11-15T18:01:24;7.50;99.90
13035;DHT22;6584;48.022;11.810;2022-11-15T18:03:50;7.50;99.90